sensor_id;sensor_type;location;lat;lon;timestamp;P1;durP1;ratioP1;P2;durP2;ratioP2
49840;SDS011;35738;49.890;5.930;2023-06-14T00:01:02;6.63;;;4.57;;
49840;SDS011;35738;49.890;5.930;2023-06-14T00:03:32;6.43;;;4.25;;
49840;SDS011;35738;49.890;5.930;2023-06-14T00:06:00;6.07;;;4.43;;
49840;SDS011;35738;49.890;5.930;2023-06-14T00:08:27;8.75;;;4.45;;
49840;SDS011;35738;49.890;5.930;2023-06-14T00:10:54;6.32;;;4.45;;
49840;SDS011;35738;49.890;5.930;2023-06-14T00:13:21;5.47;;;4.43;;
49840;SDS011;35738;49.890;5.930;2023-06-14T00:15:48;6.55;;;4.30;;
49840;SDS011;35738;49.890;5.930;2023-06-14T00:18:15;7.32;;;4.43;;
49840;SDS011;35738;49.890;5.930;2023-06-14T00:20:42;6.20;;;4.10;;
49840;SDS011;35738;49.890;5.930;2023-06-14T00:23:10;5.68;;;4.18;;
49840;SDS011;35738;49.890;5.930;2023-06-14T00:25:36;6.95;;;4.28;;
49840;SDS011;35738;49.890;5.930;2023-06-14T00:28:03;7.55;;;4.63;;
49840;SDS011;35738;49.890;5.930;2023-06-14T00:30:30;5.72;;;4.32;;
49840;SDS011;35738;49.890;5.930;2023-06-14T00:32:58;5.70;;;4.22;;
49840;SDS011;35738;49.890;5.930;2023-06-14T00:35:25;4.85;;;4.07;;
49840;SDS011;35738;49.890;5.930;2023-06-14T00:37:52;4.45;;;4.05;;
49840;SDS011;35738;49.890;5.930;2023-06-14T00:40:21;5.03;;;4.28;;
49840;SDS011;35738;49.890;5.930;2023-06-14T00:42:48;4.57;;;3.90;;
49840;SDS011;35738;49.890;5.930;2023-06-14T00:45:15;6.28;;;4.10;;
49840;SDS011;35738;49.890;5.930;2023-06-14T00:47:45;4.93;;;4.00;;
49840;SDS011;35738;49.890;5.930;2023-06-14T00:50:15;8.30;;;4.68;;
49840;SDS011;35738;49.890;5.930;2023-06-14T00:52:43;5.82;;;3.92;;
49840;SDS011;35738;49.890;5.930;2023-06-14T00:55:10;4.60;;;4.20;;
49840;SDS011;35738;49.890;5.930;2023-06-14T00:57:37;4.40;;;4.00;;
49840;SDS011;35738;49.890;5.930;2023-06-14T01:00:06;5.10;;;4.10;;
49840;SDS011;35738;49.890;5.930;2023-06-14T01:02:38;6.50;;;4.05;;
49840;SDS011;35738;49.890;5.930;2023-06-14T01:05:06;4.72;;;4.00;;
49840;SDS011;35738;49.890;5.930;2023-06-14T01:12:58;6.20;;;4.45;;
49840;SDS011;35738;49.890;5.930;2023-06-14T01:15:30;4.50;;;4.10;;
49840;SDS011;35738;49.890;5.930;2023-06-14T01:17:58;7.10;;;4.38;;
49840;SDS011;35738;49.890;5.930;2023-06-14T01:20:31;4.43;;;4.03;;
49840;SDS011;35738;49.890;5.930;2023-06-14T01:22:59;4.53;;;4.03;;
49840;SDS011;35738;49.890;5.930;2023-06-14T01:25:26;5.13;;;4.18;;
49840;SDS011;35738;49.890;5.930;2023-06-14T01:28:01;4.60;;;4.20;;
49840;SDS011;35738;49.890;5.930;2023-06-14T01:30:30;7.43;;;4.30;;
49840;SDS011;35738;49.890;5.930;2023-06-14T01:32:59;4.32;;;3.90;;
49840;SDS011;35738;49.890;5.930;2023-06-14T01:35:27;5.68;;;4.50;;
49840;SDS011;35738;49.890;5.930;2023-06-14T01:37:54;6.10;;;4.55;;
49840;SDS011;35738;49.890;5.930;2023-06-14T01:40:22;6.93;;;4.53;;
49840;SDS011;35738;49.890;5.930;2023-06-14T01:42:50;6.22;;;4.25;;
49840;SDS011;35738;49.890;5.930;2023-06-14T01:45:19;5.20;;;4.25;;
49840;SDS011;35738;49.890;5.930;2023-06-14T01:47:46;7.03;;;4.60;;
49840;SDS011;35738;49.890;5.930;2023-06-14T01:50:14;5.70;;;4.22;;
49840;SDS011;35738;49.890;5.930;2023-06-14T01:52:42;4.78;;;4.22;;
49840;SDS011;35738;49.890;5.930;2023-06-14T01:55:09;6.43;;;4.63;;
49840;SDS011;35738;49.890;5.930;2023-06-14T01:57:36;6.47;;;4.35;;
49840;SDS011;35738;49.890;5.930;2023-06-14T02:00:04;6.70;;;4.32;;
49840;SDS011;35738;49.890;5.930;2023-06-14T02:02:35;5.10;;;4.60;;
49840;SDS011;35738;49.890;5.930;2023-06-14T02:05:02;5.05;;;4.35;;
49840;SDS011;35738;49.890;5.930;2023-06-14T02:07:29;6.93;;;4.18;;
49840;SDS011;35738;49.890;5.930;2023-06-14T02:09:56;5.10;;;4.38;;
49840;SDS011;35738;49.890;5.930;2023-06-14T02:12:25;4.80;;;4.30;;
49840;SDS011;35738;49.890;5.930;2023-06-14T02:14:52;5.95;;;4.53;;
49840;SDS011;35738;49.890;5.930;2023-06-14T02:17:23;5.95;;;4.68;;
49840;SDS011;35738;49.890;5.930;2023-06-14T02:19:51;6.28;;;4.45;;
49840;SDS011;35738;49.890;5.930;2023-06-14T02:22:18;6.22;;;4.80;;
49840;SDS011;35738;49.890;5.930;2023-06-14T02:24:48;5.70;;;4.40;;
49840;SDS011;35738;49.890;5.930;2023-06-14T02:27:26;6.22;;;4.40;;
49840;SDS011;35738;49.890;5.930;2023-06-14T02:29:53;4.80;;;4.38;;
49840;SDS011;35738;49.890;5.930;2023-06-14T02:32:21;6.38;;;4.90;;
49840;SDS011;35738;49.890;5.930;2023-06-14T02:34:48;8.35;;;5.10;;
49840;SDS011;35738;49.890;5.930;2023-06-14T02:37:16;5.38;;;4.82;;
49840;SDS011;35738;49.890;5.930;2023-06-14T02:39:44;4.95;;;4.55;;
49840;SDS011;35738;49.890;5.930;2023-06-14T02:42:11;6.55;;;4.53;;
49840;SDS011;35738;49.890;5.930;2023-06-14T02:44:38;6.80;;;4.40;;
49840;SDS011;35738;49.890;5.930;2023-06-14T02:47:06;6.85;;;4.97;;
49840;SDS011;35738;49.890;5.930;2023-06-14T02:49:33;6.45;;;4.65;;
49840;SDS011;35738;49.890;5.930;2023-06-14T02:52:02;5.57;;;4.60;;
49840;SDS011;35738;49.890;5.930;2023-06-14T02:54:29;7.30;;;4.93;;
49840;SDS011;35738;49.890;5.930;2023-06-14T02:56:56;5.32;;;4.80;;
49840;SDS011;35738;49.890;5.930;2023-06-14T02:59:23;5.38;;;4.88;;
49840;SDS011;35738;49.890;5.930;2023-06-14T03:01:51;4.93;;;4.50;;
49840;SDS011;35738;49.890;5.930;2023-06-14T03:04:19;5.95;;;4.82;;
49840;SDS011;35738;49.890;5.930;2023-06-14T03:06:46;8.25;;;5.00;;
49840;SDS011;35738;49.890;5.930;2023-06-14T03:09:16;7.20;;;5.28;;
49840;SDS011;35738;49.890;5.930;2023-06-14T03:11:43;5.47;;;4.88;;
49840;SDS011;35738;49.890;5.930;2023-06-14T03:14:10;6.40;;;5.10;;
49840;SDS011;35738;49.890;5.930;2023-06-14T03:16:37;5.20;;;4.57;;
49840;SDS011;35738;49.890;5.930;2023-06-14T03:19:04;5.82;;;4.90;;
49840;SDS011;35738;49.890;5.930;2023-06-14T03:21:32;5.55;;;4.93;;
49840;SDS011;35738;49.890;5.930;2023-06-14T03:24:01;5.47;;;4.93;;
49840;SDS011;35738;49.890;5.930;2023-06-14T03:26:29;5.40;;;4.55;;
49840;SDS011;35738;49.890;5.930;2023-06-14T03:28:57;7.43;;;4.88;;
49840;SDS011;35738;49.890;5.930;2023-06-14T03:31:24;4.97;;;4.47;;
49840;SDS011;35738;49.890;5.930;2023-06-14T03:33:51;5.40;;;4.60;;
49840;SDS011;35738;49.890;5.930;2023-06-14T03:36:19;5.70;;;4.55;;
49840;SDS011;35738;49.890;5.930;2023-06-14T03:38:46;6.68;;;4.63;;
49840;SDS011;35738;49.890;5.930;2023-06-14T03:41:13;5.80;;;4.93;;
49840;SDS011;35738;49.890;5.930;2023-06-14T03:43:40;6.80;;;4.63;;
49840;SDS011;35738;49.890;5.930;2023-06-14T03:46:08;7.07;;;4.60;;
49840;SDS011;35738;49.890;5.930;2023-06-14T03:48:36;5.78;;;4.88;;
49840;SDS011;35738;49.890;5.930;2023-06-14T03:51:09;7.00;;;4.97;;
49840;SDS011;35738;49.890;5.930;2023-06-14T03:53:37;5.70;;;4.80;;
49840;SDS011;35738;49.890;5.930;2023-06-14T03:56:19;6.88;;;4.90;;
49840;SDS011;35738;49.890;5.930;2023-06-14T03:58:46;5.45;;;4.63;;
49840;SDS011;35738;49.890;5.930;2023-06-14T04:01:14;6.60;;;4.90;;
49840;SDS011;35738;49.890;5.930;2023-06-14T04:03:44;5.05;;;4.35;;
49840;SDS011;35738;49.890;5.930;2023-06-14T04:06:12;5.93;;;4.70;;
49840;SDS011;35738;49.890;5.930;2023-06-14T04:08:46;7.80;;;4.60;;
49840;SDS011;35738;49.890;5.930;2023-06-14T04:11:16;5.97;;;4.82;;
49840;SDS011;35738;49.890;5.930;2023-06-14T04:13:45;5.50;;;4.50;;
49840;SDS011;35738;49.890;5.930;2023-06-14T04:16:22;5.70;;;5.10;;
49840;SDS011;35738;49.890;5.930;2023-06-14T04:19:10;4.60;;;4.20;;
49840;SDS011;35738;49.890;5.930;2023-06-14T04:21:40;4.80;;;4.30;;
49840;SDS011;35738;49.890;5.930;2023-06-14T04:24:08;5.28;;;4.78;;
49840;SDS011;35738;49.890;5.930;2023-06-14T04:26:48;5.13;;;4.60;;
49840;SDS011;35738;49.890;5.930;2023-06-14T04:29:51;5.18;;;4.40;;
49840;SDS011;35738;49.890;5.930;2023-06-14T04:35:27;7.53;;;4.95;;
49840;SDS011;35738;49.890;5.930;2023-06-14T04:41:43;5.40;;;4.18;;
49840;SDS011;35738;49.890;5.930;2023-06-14T04:44:51;4.07;;;3.67;;
49840;SDS011;35738;49.890;5.930;2023-06-14T04:47:29;5.00;;;4.10;;
49840;SDS011;35738;49.890;5.930;2023-06-14T04:50:27;5.50;;;4.47;;
49840;SDS011;35738;49.890;5.930;2023-06-14T04:53:02;7.30;;;4.80;;
49840;SDS011;35738;49.890;5.930;2023-06-14T04:55:41;7.13;;;4.80;;
49840;SDS011;35738;49.890;5.930;2023-06-14T04:58:37;6.50;;;4.65;;
49840;SDS011;35738;49.890;5.930;2023-06-14T05:01:12;8.50;;;4.60;;
49840;SDS011;35738;49.890;5.930;2023-06-14T17:26:21;2.42;;;2.05;;
49840;SDS011;35738;49.890;5.930;2023-06-14T17:28:54;2.95;;;1.80;;
49840;SDS011;35738;49.890;5.930;2023-06-14T17:31:21;2.70;;;1.90;;
49840;SDS011;35738;49.890;5.930;2023-06-14T17:33:48;2.50;;;2.10;;
49840;SDS011;35738;49.890;5.930;2023-06-14T17:36:14;4.75;;;2.10;;
49840;SDS011;35738;49.890;5.930;2023-06-14T17:38:41;4.25;;;2.00;;
49840;SDS011;35738;49.890;5.930;2023-06-14T17:41:07;2.65;;;2.13;;
49840;SDS011;35738;49.890;5.930;2023-06-14T17:43:37;3.05;;;1.95;;
49840;SDS011;35738;49.890;5.930;2023-06-14T17:46:04;2.45;;;2.10;;
49840;SDS011;35738;49.890;5.930;2023-06-14T17:48:31;2.83;;;1.98;;
49840;SDS011;35738;49.890;5.930;2023-06-14T17:53:28;2.25;;;2.15;;
49840;SDS011;35738;49.890;5.930;2023-06-14T17:55:55;3.67;;;2.00;;
49840;SDS011;35738;49.890;5.930;2023-06-14T17:58:21;3.40;;;1.80;;
49840;SDS011;35738;49.890;5.930;2023-06-14T18:00:48;2.15;;;1.95;;
49840;SDS011;35738;49.890;5.930;2023-06-14T18:03:17;3.20;;;2.10;;
49840;SDS011;35738;49.890;5.930;2023-06-14T18:05:45;3.92;;;2.10;;
49840;SDS011;35738;49.890;5.930;2023-06-14T18:08:12;4.25;;;2.20;;
49840;SDS011;35738;49.890;5.930;2023-06-14T18:10:39;3.63;;;2.20;;
49840;SDS011;35738;49.890;5.930;2023-06-14T18:13:06;2.97;;;1.90;;
49840;SDS011;35738;49.890;5.930;2023-06-14T18:15:33;2.22;;;2.00;;
49840;SDS011;35738;49.890;5.930;2023-06-14T18:17:59;2.80;;;2.20;;
49840;SDS011;35738;49.890;5.930;2023-06-14T18:20:26;2.30;;;2.10;;
49840;SDS011;35738;49.890;5.930;2023-06-14T18:23:00;2.17;;;2.03;;
49840;SDS011;35738;49.890;5.930;2023-06-14T18:25:27;3.40;;;2.40;;
49840;SDS011;35738;49.890;5.930;2023-06-14T18:27:54;3.88;;;2.20;;
49840;SDS011;35738;49.890;5.930;2023-06-14T18:30:21;2.13;;;1.90;;
49840;SDS011;35738;49.890;5.930;2023-06-14T18:32:50;3.30;;;2.15;;
49840;SDS011;35738;49.890;5.930;2023-06-14T18:35:17;2.28;;;2.13;;
49840;SDS011;35738;49.890;5.930;2023-06-14T18:37:44;3.33;;;2.30;;
49840;SDS011;35738;49.890;5.930;2023-06-14T18:40:11;3.38;;;2.40;;
49840;SDS011;35738;49.890;5.930;2023-06-14T18:42:44;2.80;;;2.03;;
49840;SDS011;35738;49.890;5.930;2023-06-14T18:45:11;2.60;;;2.40;;
49840;SDS011;35738;49.890;5.930;2023-06-14T18:47:38;4.90;;;2.25;;
49840;SDS011;35738;49.890;5.930;2023-06-14T18:50:05;2.60;;;2.40;;
49840;SDS011;35738;49.890;5.930;2023-06-14T18:52:32;2.13;;;2.00;;
49840;SDS011;35738;49.890;5.930;2023-06-14T18:55:00;3.00;;;2.10;;
49840;SDS011;35738;49.890;5.930;2023-06-14T18:57:30;1.90;;;1.80;;
49840;SDS011;35738;49.890;5.930;2023-06-14T18:59:57;2.22;;;2.03;;
49840;SDS011;35738;49.890;5.930;2023-06-14T19:02:24;4.15;;;2.42;;
49840;SDS011;35738;49.890;5.930;2023-06-14T19:04:54;3.45;;;2.10;;
49840;SDS011;35738;49.890;5.930;2023-06-14T19:07:23;2.42;;;1.88;;
49840;SDS011;35738;49.890;5.930;2023-06-14T19:09:50;2.53;;;1.95;;
49840;SDS011;35738;49.890;5.930;2023-06-14T19:12:16;3.50;;;2.20;;
49840;SDS011;35738;49.890;5.930;2023-06-14T19:14:43;2.25;;;2.05;;
49840;SDS011;35738;49.890;5.930;2023-06-14T19:17:10;2.03;;;1.83;;
49840;SDS011;35738;49.890;5.930;2023-06-14T19:19:39;2.17;;;2.05;;
49840;SDS011;35738;49.890;5.930;2023-06-14T19:22:06;3.80;;;2.20;;
49840;SDS011;35738;49.890;5.930;2023-06-14T19:24:33;4.50;;;2.30;;
49840;SDS011;35738;49.890;5.930;2023-06-14T19:27:00;2.20;;;2.00;;
49840;SDS011;35738;49.890;5.930;2023-06-14T19:29:26;4.65;;;2.08;;
49840;SDS011;35738;49.890;5.930;2023-06-14T19:31:53;2.50;;;2.30;;
49840;SDS011;35738;49.890;5.930;2023-06-14T19:34:20;5.03;;;2.15;;
49840;SDS011;35738;49.890;5.930;2023-06-14T19:36:49;2.85;;;2.10;;
49840;SDS011;35738;49.890;5.930;2023-06-14T19:39:16;2.17;;;1.95;;
49840;SDS011;35738;49.890;5.930;2023-06-14T19:41:43;2.42;;;2.08;;
49840;SDS011;35738;49.890;5.930;2023-06-14T19:44:10;5.35;;;2.45;;
49840;SDS011;35738;49.890;5.930;2023-06-14T19:46:36;4.65;;;2.22;;
49840;SDS011;35738;49.890;5.930;2023-06-14T19:49:03;2.25;;;1.95;;
49840;SDS011;35738;49.890;5.930;2023-06-14T19:51:31;2.60;;;2.28;;
49840;SDS011;35738;49.890;5.930;2023-06-14T19:53:58;4.07;;;2.22;;
49840;SDS011;35738;49.890;5.930;2023-06-14T19:56:25;3.42;;;2.60;;
49840;SDS011;35738;49.890;5.930;2023-06-14T19:58:51;2.92;;;2.22;;
49840;SDS011;35738;49.890;5.930;2023-06-14T20:01:19;2.92;;;2.15;;
49840;SDS011;35738;49.890;5.930;2023-06-14T20:03:46;2.92;;;2.40;;
49840;SDS011;35738;49.890;5.930;2023-06-14T20:06:15;2.60;;;2.20;;
49840;SDS011;35738;49.890;5.930;2023-06-14T20:08:42;5.35;;;2.20;;
49840;SDS011;35738;49.890;5.930;2023-06-14T20:11:09;10.25;;;2.35;;
49840;SDS011;35738;49.890;5.930;2023-06-14T20:13:36;4.95;;;2.30;;
49840;SDS011;35738;49.890;5.930;2023-06-14T20:16:02;12.43;;;2.35;;
49840;SDS011;35738;49.890;5.930;2023-06-14T20:18:30;4.13;;;2.38;;
49840;SDS011;35738;49.890;5.930;2023-06-14T20:20:56;3.08;;;1.95;;
49840;SDS011;35738;49.890;5.930;2023-06-14T20:23:23;3.10;;;1.88;;
49840;SDS011;35738;49.890;5.930;2023-06-14T20:25:50;3.13;;;2.30;;
49840;SDS011;35738;49.890;5.930;2023-06-14T20:28:19;2.17;;;2.03;;
49840;SDS011;35738;49.890;5.930;2023-06-14T20:30:45;2.83;;;2.30;;
49840;SDS011;35738;49.890;5.930;2023-06-14T20:33:12;2.75;;;2.00;;
49840;SDS011;35738;49.890;5.930;2023-06-14T20:35:38;2.85;;;2.20;;
49840;SDS011;35738;49.890;5.930;2023-06-14T20:38:08;2.45;;;2.20;;
49840;SDS011;35738;49.890;5.930;2023-06-14T20:40:35;2.40;;;1.95;;
49840;SDS011;35738;49.890;5.930;2023-06-14T20:43:03;2.78;;;2.20;;
49840;SDS011;35738;49.890;5.930;2023-06-14T20:45:32;2.20;;;2.10;;
49840;SDS011;35738;49.890;5.930;2023-06-14T20:47:59;2.83;;;2.58;;
49840;SDS011;35738;49.890;5.930;2023-06-14T20:50:26;2.25;;;2.15;;
49840;SDS011;35738;49.890;5.930;2023-06-14T20:52:59;5.20;;;2.35;;
49840;SDS011;35738;49.890;5.930;2023-06-14T20:55:29;2.30;;;2.13;;
49840;SDS011;35738;49.890;5.930;2023-06-14T20:57:55;2.85;;;2.30;;
49840;SDS011;35738;49.890;5.930;2023-06-14T21:00:22;3.20;;;2.30;;
49840;SDS011;35738;49.890;5.930;2023-06-14T21:02:49;3.15;;;2.50;;
49840;SDS011;35738;49.890;5.930;2023-06-14T21:05:16;2.40;;;2.30;;
49840;SDS011;35738;49.890;5.930;2023-06-14T21:07:42;3.17;;;2.83;;
49840;SDS011;35738;49.890;5.930;2023-06-14T21:10:09;2.63;;;2.42;;
49840;SDS011;35738;49.890;5.930;2023-06-14T21:12:37;2.30;;;2.10;;
49840;SDS011;35738;49.890;5.930;2023-06-14T21:15:04;2.70;;;2.50;;
49840;SDS011;35738;49.890;5.930;2023-06-14T21:17:31;2.58;;;2.25;;
49840;SDS011;35738;49.890;5.930;2023-06-14T21:19:58;2.20;;;2.03;;
49840;SDS011;35738;49.890;5.930;2023-06-14T21:22:24;2.47;;;2.30;;
49840;SDS011;35738;49.890;5.930;2023-06-14T21:24:51;3.00;;;2.05;;
49840;SDS011;35738;49.890;5.930;2023-06-14T21:27:17;2.53;;;2.33;;
49840;SDS011;35738;49.890;5.930;2023-06-14T21:29:47;4.72;;;2.30;;
49840;SDS011;35738;49.890;5.930;2023-06-14T21:32:15;2.50;;;2.30;;
49840;SDS011;35738;49.890;5.930;2023-06-14T21:34:42;2.70;;;2.40;;
49840;SDS011;35738;49.890;5.930;2023-06-14T21:37:09;3.63;;;2.50;;
49840;SDS011;35738;49.890;5.930;2023-06-14T21:39:36;3.20;;;2.30;;
49840;SDS011;35738;49.890;5.930;2023-06-14T21:42:07;3.30;;;2.40;;
49840;SDS011;35738;49.890;5.930;2023-06-14T21:44:40;4.20;;;2.30;;
49840;SDS011;35738;49.890;5.930;2023-06-14T21:47:09;3.70;;;2.60;;
49840;SDS011;35738;49.890;5.930;2023-06-14T21:49:40;2.70;;;2.30;;
49840;SDS011;35738;49.890;5.930;2023-06-14T21:52:07;4.95;;;2.80;;
49840;SDS011;35738;49.890;5.930;2023-06-14T21:54:35;2.90;;;2.60;;
49840;SDS011;35738;49.890;5.930;2023-06-14T21:57:01;2.67;;;2.45;;
49840;SDS011;35738;49.890;5.930;2023-06-14T21:59:28;2.92;;;2.58;;
49840;SDS011;35738;49.890;5.930;2023-06-14T22:01:55;2.50;;;2.30;;
49840;SDS011;35738;49.890;5.930;2023-06-14T22:04:22;2.65;;;2.45;;
49840;SDS011;35738;49.890;5.930;2023-06-14T22:06:48;4.28;;;2.20;;
49840;SDS011;35738;49.890;5.930;2023-06-14T22:09:15;2.78;;;2.50;;
49840;SDS011;35738;49.890;5.930;2023-06-14T22:11:42;3.70;;;2.63;;
49840;SDS011;35738;49.890;5.930;2023-06-14T22:14:11;2.60;;;2.40;;
49840;SDS011;35738;49.890;5.930;2023-06-14T22:16:38;2.83;;;2.50;;
49840;SDS011;35738;49.890;5.930;2023-06-14T22:19:05;2.58;;;2.38;;
49840;SDS011;35738;49.890;5.930;2023-06-14T22:21:33;2.50;;;2.30;;
49840;SDS011;35738;49.890;5.930;2023-06-14T22:24:01;3.15;;;2.50;;
49840;SDS011;35738;49.890;5.930;2023-06-14T22:26:29;2.67;;;2.47;;
49840;SDS011;35738;49.890;5.930;2023-06-14T22:29:06;2.50;;;2.40;;
49840;SDS011;35738;49.890;5.930;2023-06-14T22:31:32;2.75;;;2.55;;
49840;SDS011;35738;49.890;5.930;2023-06-14T22:34:03;2.50;;;2.30;;
49840;SDS011;35738;49.890;5.930;2023-06-14T22:36:30;3.38;;;2.30;;
49840;SDS011;35738;49.890;5.930;2023-06-14T22:38:57;5.00;;;2.47;;
49840;SDS011;35738;49.890;5.930;2023-06-14T22:41:29;2.80;;;2.60;;
49840;SDS011;35738;49.890;5.930;2023-06-14T22:43:57;3.47;;;2.50;;
49840;SDS011;35738;49.890;5.930;2023-06-14T22:46:24;2.90;;;2.40;;
49840;SDS011;35738;49.890;5.930;2023-06-14T22:48:51;2.95;;;2.38;;
49840;SDS011;35738;49.890;5.930;2023-06-14T22:51:20;3.05;;;2.58;;
49840;SDS011;35738;49.890;5.930;2023-06-14T22:53:48;2.78;;;2.47;;
49840;SDS011;35738;49.890;5.930;2023-06-14T22:56:16;2.80;;;2.60;;
49840;SDS011;35738;49.890;5.930;2023-06-14T22:58:44;2.90;;;2.70;;
49840;SDS011;35738;49.890;5.930;2023-06-14T23:01:12;2.50;;;2.40;;
49840;SDS011;35738;49.890;5.930;2023-06-14T23:03:46;3.15;;;2.58;;
49840;SDS011;35738;49.890;5.930;2023-06-14T23:06:17;3.85;;;2.47;;
49840;SDS011;35738;49.890;5.930;2023-06-14T23:08:51;2.90;;;2.60;;
49840;SDS011;35738;49.890;5.930;2023-06-14T23:11:20;2.60;;;2.40;;
49840;SDS011;35738;49.890;5.930;2023-06-14T23:13:47;3.88;;;2.50;;
49840;SDS011;35738;49.890;5.930;2023-06-14T23:16:15;2.60;;;2.40;;
49840;SDS011;35738;49.890;5.930;2023-06-14T23:18:44;3.22;;;2.92;;
49840;SDS011;35738;49.890;5.930;2023-06-14T23:21:12;2.65;;;2.40;;
49840;SDS011;35738;49.890;5.930;2023-06-14T23:23:46;2.72;;;2.53;;
49840;SDS011;35738;49.890;5.930;2023-06-14T23:26:14;4.03;;;2.70;;
49840;SDS011;35738;49.890;5.930;2023-06-14T23:28:41;2.70;;;2.50;;
49840;SDS011;35738;49.890;5.930;2023-06-14T23:31:11;3.92;;;2.45;;
49840;SDS011;35738;49.890;5.930;2023-06-14T23:33:39;2.88;;;2.53;;
49840;SDS011;35738;49.890;5.930;2023-06-14T23:36:07;2.50;;;2.38;;
49840;SDS011;35738;49.890;5.930;2023-06-14T23:38:35;3.33;;;2.40;;
49840;SDS011;35738;49.890;5.930;2023-06-14T23:41:13;3.00;;;2.70;;
49840;SDS011;35738;49.890;5.930;2023-06-14T23:43:43;2.53;;;2.33;;
49840;SDS011;35738;49.890;5.930;2023-06-14T23:46:12;2.90;;;2.60;;
49840;SDS011;35738;49.890;5.930;2023-06-14T23:48:42;3.13;;;2.75;;
49840;SDS011;35738;49.890;5.930;2023-06-14T23:51:08;3.10;;;2.80;;
49840;SDS011;35738;49.890;5.930;2023-06-14T23:53:35;3.17;;;2.60;;
49840;SDS011;35738;49.890;5.930;2023-06-14T23:56:03;2.90;;;2.70;;
49840;SDS011;35738;49.890;5.930;2023-06-14T23:58:30;2.60;;;2.40;;
